Karlstad, Minnesota
Current Conditions -  °F | °C
As of 3:33 AM on Sunday 26 Oct 2014 (Local Time) from KHCO Reporting Station
Clear Clear  
Wind Chill: 28°   Ceiling: Unl
Heat Index: 34°   Visibility: 10mi
Dew Point: 21°   Wind: 7mph
Humidity: 60%   Direction: 150°SSE
Pressure: 29.95"   Gusts: NA
Location:  48.58°N, 96.52°W
Report Text: KHCO 260833Z AUTO 15006KT 10SM CLR 01/M06 A2995 RMK AO2
Loading
Personal Weather Stations






























Interactive Weather Map
Tropical Storm Tracking
New forecast layout! Learn more

10-Day Weather Forecast

Advertisements
Track Severe Weather on mobile